Time;durP1;ratioP1;P1;durP2;ratioP2;P2;SDS_P1;SDS_P2;PMS_P1;PMS_P2;Temp;Humidity;BMP_temperature;BMP_pressure;BME280_temperature;BME280_humidity;BME280_pressure;Samples;Min_cycle;Max_cycle;Signal;HPM_P1;HPM_P2
2023/03/02 00:00:00;;;;;;;17.20;13.37;;;0.80;65.20;;;;;;6257109;28;20238;-83
2023/03/02 00:03:05;;;;;;;13.97;12.57;;;0.80;65.30;;;;;;6253598;28;20231;-82
2023/03/02 00:06:10;;;;;;;15.23;12.63;;;0.70;65.20;;;;;;6234762;28;20246;-85
2023/03/02 00:09:13;;;;;;;17.03;13.03;;;0.70;65.30;;;;;;6209069;28;20398;-83
2023/03/02 00:12:16;;;;;;;19.67;13.90;;;0.70;65.30;;;;;;6240836;28;20276;-81
2023/03/02 00:15:19;;;;;;;17.67;13.90;;;0.70;65.30;;;;;;6248886;28;20296;-83
2023/03/02 00:18:22;;;;;;;15.33;12.13;;;0.70;65.30;;;;;;6265765;28;20245;-84
2023/03/02 00:21:27;;;;;;;16.00;12.53;;;0.70;65.30;;;;;;6251978;28;20244;-84
2023/03/02 00:24:31;;;;;;;19.23;14.07;;;0.70;65.30;;;;;;6259629;28;20602;-83
2023/03/02 00:27:34;;;;;;;17.67;14.10;;;0.70;65.30;;;;;;6253928;28;20234;-82
2023/03/02 00:30:39;;;;;;;16.63;13.60;;;0.70;65.40;;;;;;6252364;28;20234;-85
2023/03/02 00:33:42;;;;;;;16.37;13.57;;;0.80;65.40;;;;;;6249178;28;20546;-83
2023/03/02 00:36:49;;;;;;;14.33;12.57;;;0.80;65.40;;;;;;6241560;28;20265;-81
2023/03/02 00:39:52;;;;;;;17.73;13.93;;;0.70;65.30;;;;;;6260305;28;20231;-83
2023/03/02 00:42:55;;;;;;;16.97;13.03;;;0.80;65.40;;;;;;6270379;28;20210;-80
2023/03/02 00:45:58;;;;;;;16.90;13.83;;;0.70;65.60;;;;;;6280426;28;20224;-81
2023/03/02 00:49:01;;;;;;;15.93;13.50;;;0.70;65.70;;;;;;6296044;28;20252;-82
2023/03/02 00:52:06;;;;;;;15.77;13.40;;;0.80;65.90;;;;;;6283634;28;20222;-80
2023/03/02 00:55:10;;;;;;;15.30;13.43;;;0.80;65.90;;;;;;6267108;28;20475;-79
2023/03/02 00:58:13;;;;;;;16.07;13.87;;;0.80;66.00;;;;;;6278008;28;20297;-78
2023/03/02 01:01:16;;;;;;;14.60;13.03;;;0.80;66.20;;;;;;6272454;28;20248;-80
2023/03/02 01:04:20;;;;;;;16.03;13.87;;;0.80;66.50;;;;;;6268518;28;20225;-82
2023/03/02 01:07:27;;;;;;;16.00;13.10;;;0.70;66.70;;;;;;6217822;28;20226;-81
2023/03/02 01:10:31;;;;;;;15.87;13.83;;;0.70;67.00;;;;;;6247812;28;20875;-82
2023/03/02 01:13:35;;;;;;;16.93;13.70;;;0.70;67.20;;;;;;6251539;28;20247;-84
2023/03/02 01:16:38;;;;;;;17.83;13.90;;;0.70;67.30;;;;;;6249190;28;20239;-80
2023/03/02 01:19:42;;;;;;;16.37;14.07;;;0.70;67.50;;;;;;6264131;28;20245;-84
2023/03/02 01:22:47;;;;;;;16.07;13.50;;;0.70;67.80;;;;;;6254687;28;20299;-82
2023/03/02 01:25:50;;;;;;;16.37;14.67;;;0.70;68.00;;;;;;6217025;28;20231;-83
2023/03/02 01:28:54;;;;;;;15.50;12.63;;;0.60;68.20;;;;;;6238615;28;20218;-81
2023/03/02 01:31:57;;;;;;;17.50;13.17;;;0.60;68.30;;;;;;6260274;28;20249;-83
2023/03/02 01:35:00;;;;;;;15.00;13.53;;;0.60;68.50;;;;;;6295444;28;20233;-81
2023/03/02 01:38:05;;;;;;;13.20;11.57;;;0.60;68.60;;;;;;6234922;28;20282;-78
2023/03/02 01:45:53;;;;;;;14.47;12.97;;;0.60;68.70;;;;;;6228017;28;20215;-80
2023/03/02 01:49:00;;;;;;;13.40;12.10;;;0.60;69.00;;;;;;6245437;28;20223;-83
2023/03/02 01:52:04;;;;;;;14.80;12.77;;;0.50;69.10;;;;;;6226489;28;20241;-84
2023/03/02 01:55:12;;;;;;;16.53;13.80;;;0.50;69.20;;;;;;6233970;28;20369;-81
2023/03/02 01:58:17;;;;;;;13.27;11.87;;;0.50;69.40;;;;;;6265740;28;20325;-83
2023/03/02 02:01:20;;;;;;;14.20;12.73;;;0.50;69.40;;;;;;6251811;28;20243;-83
2023/03/02 02:04:27;;;;;;;14.37;12.87;;;0.40;69.50;;;;;;6260101;28;20234;-83
2023/03/02 02:07:30;;;;;;;14.67;13.10;;;0.40;69.60;;;;;;6238114;28;20237;-82
2023/03/02 02:10:36;;;;;;;15.73;13.00;;;0.40;69.70;;;;;;6249364;28;20238;-82
2023/03/02 02:13:39;;;;;;;15.50;13.40;;;0.40;69.80;;;;;;6242168;28;20265;-83
2023/03/02 02:16:42;;;;;;;14.30;12.80;;;0.40;69.90;;;;;;6242280;28;20234;-84
2023/03/02 02:19:59;;;;;;;14.83;13.23;;;0.30;70.00;;;;;;6222175;28;20259;-82
2023/03/02 02:23:17;;;;;;;20.60;14.30;;;0.30;70.00;;;;;;6216949;28;20224;-81
2023/03/02 02:26:26;;;;;;;15.80;13.33;;;0.30;70.10;;;;;;6206386;28;20242;-81
2023/03/02 02:29:31;;;;;;;15.80;12.90;;;0.30;70.10;;;;;;6241357;28;20230;-82
2023/03/02 02:32:39;;;;;;;14.87;13.03;;;0.30;70.20;;;;;;6220509;28;20234;-82
2023/03/02 02:35:47;;;;;;;15.00;13.47;;;0.20;70.30;;;;;;6207938;28;20235;-83
2023/03/02 02:38:54;;;;;;;14.97;13.37;;;0.30;70.30;;;;;;6224189;28;20293;-82
2023/03/02 02:42:02;;;;;;;14.97;12.63;;;0.20;70.40;;;;;;6232414;28;20242;-85
2023/03/02 02:45:17;;;;;;;15.70;13.30;;;0.20;70.50;;;;;;6227423;28;20270;-83
2023/03/02 02:48:23;;;;;;;15.97;13.20;;;0.20;70.50;;;;;;6232767;28;20760;-81
2023/03/02 02:51:28;;;;;;;17.00;14.27;;;0.10;70.50;;;;;;6219993;28;20251;-83
2023/03/02 02:54:34;;;;;;;16.97;13.93;;;0.10;70.70;;;;;;6229660;28;20253;-81
2023/03/02 02:57:40;;;;;;;16.77;14.13;;;0.10;70.80;;;;;;6240071;28;20242;-83
2023/03/02 03:00:43;;;;;;;16.17;14.40;;;0.00;70.90;;;;;;6236249;28;20349;-82
2023/03/02 03:03:51;;;;;;;19.27;14.53;;;0.00;70.90;;;;;;6241060;28;20244;-83
2023/03/02 03:06:56;;;;;;;18.30;14.57;;;0.00;71.00;;;;;;6238197;28;20315;-83
2023/03/02 03:10:05;;;;;;;22.70;14.73;;;0.00;71.10;;;;;;6215097;28;20694;-81
2023/03/02 03:13:11;;;;;;;18.27;14.27;;;0.00;71.10;;;;;;6249408;28;20630;-83
2023/03/02 03:16:15;;;;;;;20.83;15.17;;;0.00;71.20;;;;;;6246364;28;20889;-83
2023/03/02 03:19:21;;;;;;;17.50;14.17;;;0.00;71.20;;;;;;6214215;28;20231;-82
2023/03/02 03:22:24;;;;;;;17.70;14.93;;;0.00;71.40;;;;;;6224585;28;20244;-83
2023/03/02 03:25:27;;;;;;;19.43;14.43;;;0.00;71.40;;;;;;6215762;28;20235;-80
2023/03/02 03:28:34;;;;;;;19.10;14.63;;;0.00;71.50;;;;;;6213973;28;20721;-83
2023/03/02 03:31:37;;;;;;;19.23;14.20;;;-0.10;71.50;;;;;;6238222;28;20246;-82
2023/03/02 03:34:41;;;;;;;17.70;13.20;;;-0.10;71.60;;;;;;6220974;28;20235;-83
2023/03/02 03:37:44;;;;;;;17.13;13.87;;;-0.10;71.70;;;;;;6255901;28;20234;-84
2023/03/02 03:40:48;;;;;;;19.23;15.20;;;-0.10;71.70;;;;;;6235544;28;20236;-82
2023/03/02 03:43:53;;;;;;;17.40;14.83;;;-0.10;71.70;;;;;;6225096;28;20277;-81
2023/03/02 03:46:56;;;;;;;16.93;14.87;;;-0.10;71.70;;;;;;6219527;28;20242;-83
2023/03/02 03:49:59;;;;;;;22.97;16.83;;;-0.10;71.80;;;;;;6236189;28;20231;-84
2023/03/02 03:53:02;;;;;;;20.47;15.83;;;-0.10;71.90;;;;;;6222851;28;20252;-83
2023/03/02 03:56:06;;;;;;;18.40;15.80;;;-0.10;71.90;;;;;;6217331;28;20809;-80
2023/03/02 03:59:15;;;;;;;22.10;16.53;;;-0.10;72.00;;;;;;6240179;28;20237;-83
2023/03/02 04:02:18;;;;;;;21.20;15.47;;;-0.10;72.20;;;;;;6226831;28;20244;-82
2023/03/02 04:05:21;;;;;;;18.17;14.73;;;-0.10;72.20;;;;;;6217048;28;20263;-82
2023/03/02 04:08:24;;;;;;;20.47;15.13;;;-0.10;72.20;;;;;;6222408;28;20292;-81
2023/03/02 04:11:29;;;;;;;19.43;15.30;;;-0.10;72.20;;;;;;6220243;28;20291;-82
2023/03/02 04:14:34;;;;;;;22.13;17.80;;;-0.10;72.30;;;;;;6216664;28;20645;-80
2023/03/02 04:17:37;;;;;;;25.47;17.47;;;-0.10;72.30;;;;;;6233615;28;20234;-82
2023/03/02 04:20:41;;;;;;;21.43;16.00;;;-0.10;72.50;;;;;;6237359;28;20380;-83
2023/03/02 04:23:45;;;;;;;19.30;16.03;;;-0.10;72.50;;;;;;6215645;28;20246;-82
2023/03/02 04:26:49;;;;;;;20.73;15.90;;;-0.10;72.50;;;;;;6236405;28;20242;-80
2023/03/02 04:29:54;;;;;;;20.40;16.03;;;-0.10;72.50;;;;;;6223729;28;20227;-84
2023/03/02 04:32:57;;;;;;;22.80;16.33;;;-0.10;72.60;;;;;;6236946;28;20234;-84
2023/03/02 04:36:01;;;;;;;19.77;15.93;;;-0.10;72.60;;;;;;6245702;28;20235;-83
2023/03/02 04:39:05;;;;;;;21.77;17.60;;;-0.10;72.70;;;;;;6249426;28;20281;-80
2023/03/02 04:42:08;;;;;;;23.90;17.20;;;-0.10;72.70;;;;;;6234110;28;20239;-83
2023/03/02 04:45:14;;;;;;;23.00;16.77;;;-0.20;72.70;;;;;;6251021;28;20234;-80
2023/03/02 04:48:17;;;;;;;25.13;17.90;;;-0.20;72.80;;;;;;6242822;28;20247;-83
2023/03/02 04:51:23;;;;;;;29.13;19.17;;;-0.20;72.90;;;;;;6241593;28;20242;-83
2023/03/02 04:54:27;;;;;;;26.43;19.70;;;-0.20;73.10;;;;;;6247995;28;20242;-82
2023/03/02 04:57:30;;;;;;;29.67;20.23;;;-0.20;73.60;;;;;;6236209;28;20235;-83
2023/03/02 05:00:35;;;;;;;26.73;19.63;;;-0.20;73.70;;;;;;6232520;28;20245;-81
2023/03/02 05:03:41;;;;;;;29.53;19.30;;;-0.20;73.70;;;;;;6223067;28;20242;-83
2023/03/02 05:06:44;;;;;;;26.37;19.80;;;-0.20;73.80;;;;;;6241482;28;20241;-81
2023/03/02 05:09:48;;;;;;;26.97;19.50;;;-0.20;74.00;;;;;;6219274;28;20243;-83
2023/03/02 05:12:56;;;;;;;28.97;20.80;;;-0.20;74.00;;;;;;6229430;28;20270;-82
2023/03/02 05:16:01;;;;;;;26.10;19.30;;;-0.20;74.20;;;;;;6222035;28;20288;-82
2023/03/02 05:19:06;;;;;;;25.37;19.33;;;-0.20;74.20;;;;;;6204210;28;20234;-84
2023/03/02 05:22:10;;;;;;;29.47;20.30;;;-0.20;74.10;;;;;;6256336;28;20230;-82
2023/03/02 05:25:16;;;;;;;26.93;19.70;;;-0.20;74.10;;;;;;6247451;28;20229;-78
2023/03/02 05:28:20;;;;;;;26.90;20.90;;;-0.30;74.20;;;;;;6234319;28;20246;-78
2023/03/02 05:31:29;;;;;;;25.87;18.93;;;-0.30;74.40;;;;;;6243819;28;20319;-79
2023/03/02 05:34:32;;;;;;;26.57;20.93;;;-0.30;74.30;;;;;;6208983;28;20272;-79
2023/03/02 05:37:35;;;;;;;29.57;21.87;;;-0.30;74.30;;;;;;6200136;28;20242;-78
2023/03/02 05:40:39;;;;;;;28.60;22.33;;;-0.40;74.40;;;;;;6206293;28;20239;-78
2023/03/02 05:43:42;;;;;;;35.67;23.23;;;-0.40;74.40;;;;;;6210463;28;20235;-78
2023/03/02 05:46:48;;;;;;;33.83;23.57;;;-0.40;74.50;;;;;;6204133;28;20254;-78
2023/03/02 05:49:51;;;;;;;28.10;21.50;;;-0.30;74.80;;;;;;6236603;28;20235;-80
2023/03/02 05:52:54;;;;;;;31.53;21.43;;;-0.40;74.60;;;;;;6243672;28;20231;-80
2023/03/02 05:55:57;;;;;;;37.40;23.90;;;-0.40;74.50;;;;;;6242513;28;20745;-78
2023/03/02 05:59:00;;;;;;;23.93;19.27;;;-0.40;74.60;;;;;;6241667;28;20230;-81
2023/03/02 06:02:04;;;;;;;29.10;21.60;;;-0.40;74.60;;;;;;6250833;28;20841;-80
2023/03/02 06:05:10;;;;;;;32.73;23.07;;;-0.40;74.70;;;;;;6231670;28;20245;-78
2023/03/02 06:08:13;;;;;;;35.97;24.37;;;-0.40;74.80;;;;;;6238778;28;20597;-81
2023/03/02 06:11:16;;;;;;;39.70;24.70;;;-0.40;74.90;;;;;;6259032;28;20249;-77
2023/03/02 06:14:20;;;;;;;34.87;22.83;;;-0.40;74.80;;;;;;6239077;28;20231;-78
2023/03/02 06:17:25;;;;;;;33.13;23.60;;;-0.40;74.80;;;;;;6229332;28;20265;-78
2023/03/02 06:20:28;;;;;;;38.00;25.63;;;-0.40;75.00;;;;;;6240637;28;20328;-78
2023/03/02 06:23:34;;;;;;;33.10;23.73;;;-0.40;75.00;;;;;;6249577;28;20249;-78
2023/03/02 06:26:37;;;;;;;34.17;23.77;;;-0.40;75.10;;;;;;6245924;28;20489;-76
2023/03/02 06:29:41;;;;;;;34.77;23.77;;;-0.40;75.00;;;;;;6247134;28;20242;-78
2023/03/02 06:32:45;;;;;;;38.23;24.47;;;-0.40;75.00;;;;;;6230971;28;20791;-79
2023/03/02 06:35:49;;;;;;;35.60;22.97;;;-0.30;74.70;;;;;;6235770;28;20257;-78
2023/03/02 06:38:52;;;;;;;39.97;24.10;;;-0.30;74.50;;;;;;6239928;28;20722;-78
2023/03/02 06:41:55;;;;;;;38.37;24.03;;;-0.30;74.20;;;;;;6236659;28;20238;-78
2023/03/02 06:44:58;;;;;;;40.93;23.80;;;-0.30;74.20;;;;;;6240059;28;20313;-78
2023/03/02 06:48:03;;;;;;;33.13;22.30;;;-0.30;74.00;;;;;;6212706;28;20238;-78
2023/03/02 06:51:07;;;;;;;37.40;23.40;;;-0.30;74.00;;;;;;6239173;28;20723;-78
2023/03/02 06:54:10;;;;;;;40.17;24.13;;;-0.30;73.60;;;;;;6235872;28;20350;-77
2023/03/02 06:57:13;;;;;;;35.20;23.27;;;-0.40;73.30;;;;;;6242625;28;20803;-80
2023/03/02 07:00:23;;;;;;;45.10;25.13;;;-0.50;73.60;;;;;;6238707;28;20927;-76
2023/03/02 07:03:29;;;;;;;41.33;23.83;;;-0.50;73.50;;;;;;6253105;28;20258;-78
2023/03/02 07:06:32;;;;;;;42.47;24.57;;;-0.60;73.90;;;;;;6224738;28;20313;-78
2023/03/02 07:09:35;;;;;;;39.27;23.33;;;-0.60;74.00;;;;;;6228012;28;20238;-78
2023/03/02 07:12:39;;;;;;;42.90;24.17;;;-0.60;74.40;;;;;;6224997;28;20439;-79
2023/03/02 07:15:42;;;;;;;40.73;24.43;;;-0.60;74.20;;;;;;6222751;28;20258;-79
2023/03/02 07:18:46;;;;;;;46.63;25.67;;;-0.60;74.20;;;;;;6226413;28;20245;-79
2023/03/02 07:21:49;;;;;;;45.23;24.43;;;-0.60;74.20;;;;;;6248341;28;20238;-77
2023/03/02 07:24:52;;;;;;;41.53;24.23;;;-0.60;74.60;;;;;;6244698;28;20258;-79
2023/03/02 07:27:55;;;;;;;36.40;23.53;;;-0.50;74.40;;;;;;6204096;28;20581;-81
2023/03/02 07:30:59;;;;;;;38.37;24.20;;;-0.40;74.50;;;;;;6219837;28;20239;-77
2023/03/02 07:34:04;;;;;;;47.30;26.70;;;-0.30;74.40;;;;;;6217181;28;20718;-76
2023/03/02 07:37:07;;;;;;;44.37;26.57;;;-0.30;74.20;;;;;;6244121;28;20277;-78
2023/03/02 07:40:14;;;;;;;45.03;25.70;;;-0.20;74.10;;;;;;6238452;28;20241;-77
2023/03/02 07:43:17;;;;;;;43.40;23.70;;;-0.20;74.10;;;;;;6234020;28;20246;-77
2023/03/02 07:46:20;;;;;;;35.67;22.23;;;-0.10;74.20;;;;;;6248742;28;20253;-76
2023/03/02 07:49:24;;;;;;;42.83;25.23;;;-0.10;74.20;;;;;;6260954;28;20737;-77
2023/03/02 07:52:29;;;;;;;41.83;24.83;;;0.00;73.90;;;;;;6230315;28;20250;-80
2023/03/02 07:55:34;;;;;;;42.67;25.23;;;0.10;73.20;;;;;;6249998;28;20239;-77
2023/03/02 07:58:38;;;;;;;41.90;23.60;;;0.00;73.00;;;;;;6244080;28;20244;-80
2023/03/02 08:01:41;;;;;;;35.30;21.73;;;0.10;73.20;;;;;;6249413;28;20314;-78
2023/03/02 08:04:45;;;;;;;40.73;24.27;;;0.20;73.10;;;;;;6249693;28;20792;-80
2023/03/02 08:07:48;;;;;;;40.60;24.27;;;0.20;73.00;;;;;;6240073;28;20602;-79
2023/03/02 08:10:51;;;;;;;36.67;23.07;;;0.30;73.10;;;;;;6246359;28;22787;-80
2023/03/02 08:13:54;;;;;;;36.00;21.90;;;0.30;72.70;;;;;;6247085;28;20242;-76
2023/03/02 08:16:57;;;;;;;36.90;22.27;;;0.40;72.50;;;;;;6252763;28;20242;-79
2023/03/02 08:20:02;;;;;;;30.90;20.30;;;0.50;72.50;;;;;;6249820;28;20241;-81
2023/03/02 08:23:05;;;;;;;36.23;22.37;;;0.60;72.60;;;;;;6246021;28;20229;-78
2023/03/02 08:26:09;;;;;;;35.50;21.93;;;0.80;71.80;;;;;;6254818;28;20230;-76
2023/03/02 08:29:18;;;;;;;30.57;21.30;;;0.80;71.40;;;;;;6248577;28;20234;-77
2023/03/02 08:32:21;;;;;;;31.83;20.97;;;0.90;70.70;;;;;;6239505;28;20259;-78
2023/03/02 08:35:26;;;;;;;33.67;22.13;;;0.90;70.50;;;;;;6207333;28;20243;-78
2023/03/02 08:38:30;;;;;;;31.60;20.50;;;0.90;70.60;;;;;;6215141;28;20235;-76
2023/03/02 08:41:34;;;;;;;32.83;21.30;;;1.00;70.70;;;;;;6237358;28;20234;-78
2023/03/02 08:44:37;;;;;;;32.97;22.37;;;1.00;70.60;;;;;;6244524;28;20642;-79
2023/03/02 08:47:40;;;;;;;33.33;23.40;;;1.00;70.20;;;;;;6256453;28;20768;-79
2023/03/02 08:50:45;;;;;;;32.67;20.93;;;1.00;70.30;;;;;;6262178;28;20364;-79
2023/03/02 08:53:50;;;;;;;34.70;22.57;;;1.10;70.50;;;;;;6251128;28;20254;-78
2023/03/02 08:56:53;;;;;;;33.23;21.13;;;1.20;70.10;;;;;;6244489;28;20256;-76
2023/03/02 08:59:56;;;;;;;32.60;21.97;;;1.40;70.10;;;;;;6274540;28;20257;-79
2023/03/02 09:03:01;;;;;;;28.40;20.90;;;1.40;69.70;;;;;;6276152;28;20482;-78
2023/03/02 09:06:05;;;;;;;27.63;19.43;;;1.40;69.60;;;;;;6264988;28;20244;-76
2023/03/02 09:09:10;;;;;;;28.43;19.77;;;1.60;69.50;;;;;;6272950;28;20416;-77
2023/03/02 09:12:13;;;;;;;28.60;19.90;;;1.70;69.40;;;;;;6229720;28;20959;-79
2023/03/02 09:15:16;;;;;;;34.50;21.93;;;1.70;69.00;;;;;;6258862;28;20238;-79
2023/03/02 09:18:19;;;;;;;31.17;20.90;;;1.80;69.20;;;;;;6247125;28;20242;-77
2023/03/02 09:21:24;;;;;;;31.43;20.57;;;1.90;68.10;;;;;;6254751;28;20245;-80
2023/03/02 09:24:27;;;;;;;33.27;21.90;;;2.00;68.30;;;;;;6238816;28;20321;-79
2023/03/02 09:27:30;;;;;;;29.63;20.53;;;2.10;68.00;;;;;;6235059;28;20235;-80
2023/03/02 09:30:33;;;;;;;29.30;20.70;;;2.10;68.50;;;;;;6251616;28;20257;-79
2023/03/02 09:33:37;;;;;;;30.37;21.20;;;2.10;68.00;;;;;;6239641;28;20753;-79
2023/03/02 09:36:42;;;;;;;27.53;20.00;;;2.20;68.10;;;;;;6240813;28;20249;-77
2023/03/02 09:39:45;;;;;;;30.37;22.17;;;2.20;68.30;;;;;;6250254;28;20234;-76
2023/03/02 09:43:03;;;;;;;28.33;19.33;;;2.30;68.30;;;;;;6241082;28;20745;-78
2023/03/02 09:46:16;;;;;;;29.07;20.47;;;2.20;67.60;;;;;;6252424;28;20623;-78
2023/03/02 09:49:29;;;;;;;30.57;20.87;;;2.10;67.40;;;;;;6251242;28;20265;-79
2023/03/02 09:52:36;;;;;;;27.77;20.30;;;2.00;67.60;;;;;;6228474;28;20242;-78
2023/03/02 09:55:39;;;;;;;28.57;19.67;;;2.10;68.10;;;;;;6234479;28;20237;-77
2023/03/02 09:58:48;;;;;;;28.97;19.83;;;2.20;67.70;;;;;;6244092;28;20234;-79
2023/03/02 10:01:54;;;;;;;29.20;19.00;;;2.10;68.10;;;;;;6252381;28;20824;-80
2023/03/02 10:04:59;;;;;;;24.47;18.87;;;2.20;68.20;;;;;;6265916;28;20234;-78
2023/03/02 10:08:04;;;;;;;27.77;19.27;;;2.30;67.40;;;;;;6279697;28;20271;-78
2023/03/02 10:11:16;;;;;;;24.33;17.90;;;2.20;67.70;;;;;;6284680;28;20246;-77
2023/03/02 10:14:24;;;;;;;24.40;18.83;;;2.10;68.70;;;;;;6241526;28;20435;-78
2023/03/02 10:17:40;;;;;;;25.13;18.27;;;2.30;67.90;;;;;;6248015;28;20243;-78
2023/03/02 10:20:49;;;;;;;25.43;17.27;;;2.50;67.60;;;;;;6284788;28;20222;-77
2023/03/02 10:23:56;;;;;;;21.93;17.87;;;2.50;67.10;;;;;;6278733;28;20281;-78
2023/03/02 10:27:10;;;;;;;23.33;17.30;;;2.70;67.40;;;;;;6269342;28;20282;-75
2023/03/02 10:30:20;;;;;;;25.33;17.43;;;2.80;66.90;;;;;;6258590;28;20826;-80
2023/03/02 10:33:23;;;;;;;24.37;18.33;;;2.80;66.30;;;;;;6257786;28;20260;-80
2023/03/02 10:36:28;;;;;;;20.17;17.47;;;2.80;66.30;;;;;;6259600;28;20230;-80
2023/03/02 10:39:32;;;;;;;21.57;17.67;;;2.80;66.30;;;;;;6246660;28;20234;-80
2023/03/02 10:42:39;;;;;;;18.30;15.53;;;2.90;66.20;;;;;;6256299;28;20735;-78
2023/03/02 10:45:42;;;;;;;16.63;14.83;;;3.10;66.30;;;;;;6254713;28;20301;-79
2023/03/02 10:48:52;;;;;;;17.07;15.30;;;3.10;65.50;;;;;;6235009;28;20242;-79
2023/03/02 10:51:57;;;;;;;21.90;16.50;;;3.20;65.40;;;;;;6225593;28;20240;-80
2023/03/02 10:55:06;;;;;;;17.87;15.17;;;3.10;65.90;;;;;;6247150;28;20227;-79
2023/03/02 10:58:25;;;;;;;20.93;16.00;;;3.30;65.90;;;;;;6265655;28;20253;-78
2023/03/02 11:01:28;;;;;;;17.60;15.80;;;3.40;65.20;;;;;;6290635;28;20298;-78
2023/03/02 11:04:31;;;;;;;16.33;13.40;;;3.50;65.30;;;;;;6294363;28;20222;-76
2023/03/02 11:07:35;;;;;;;15.93;13.73;;;3.70;64.10;;;;;;6285221;28;20411;-80
2023/03/02 11:10:41;;;;;;;16.87;14.70;;;3.70;63.60;;;;;;6279995;28;20257;-77
2023/03/02 11:13:44;;;;;;;16.40;13.47;;;3.60;63.80;;;;;;6277988;28;20244;-76
2023/03/02 11:16:47;;;;;;;17.37;13.97;;;3.50;64.50;;;;;;6281797;28;20298;-77
2023/03/02 11:19:51;;;;;;;15.00;13.27;;;3.50;64.80;;;;;;6255966;28;20272;-81
2023/03/02 11:23:04;;;;;;;14.73;13.23;;;3.70;64.70;;;;;;6259063;28;20238;-81
2023/03/02 11:26:19;;;;;;;15.10;13.47;;;3.90;64.60;;;;;;6246615;28;20246;-80
2023/03/02 11:29:30;;;;;;;15.23;12.90;;;4.00;63.10;;;;;;6249330;28;20304;-79
2023/03/02 11:32:41;;;;;;;16.40;13.50;;;4.00;63.10;;;;;;6256837;28;20239;-79
2023/03/02 11:35:47;;;;;;;15.07;13.57;;;4.10;63.70;;;;;;6254899;28;20376;-79
2023/03/02 11:38:54;;;;;;;13.60;12.20;;;4.10;63.00;;;;;;6256388;28;20327;-78
2023/03/02 11:41:58;;;;;;;14.73;13.20;;;4.30;62.90;;;;;;6254626;28;20234;-78
2023/03/02 11:45:07;;;;;;;13.93;12.53;;;4.50;62.60;;;;;;6232730;28;20230;-79
2023/03/02 11:48:18;;;;;;;15.13;12.73;;;4.60;61.90;;;;;;6227797;28;20236;-80
2023/03/02 11:51:24;;;;;;;15.17;13.63;;;4.50;62.10;;;;;;6224204;28;20250;-79
2023/03/02 11:54:39;;;;;;;15.30;13.70;;;4.40;62.20;;;;;;6252073;28;20238;-77
2023/03/02 11:57:48;;;;;;;15.80;12.93;;;4.50;62.70;;;;;;6248665;28;20884;-79
2023/03/02 12:00:53;;;;;;;18.50;14.53;;;4.70;62.70;;;;;;6252396;28;20375;-79
2023/03/02 12:04:07;;;;;;;16.20;13.17;;;4.90;61.90;;;;;;6263932;28;20238;-76
2023/03/02 12:07:21;;;;;;;19.27;14.43;;;5.00;61.80;;;;;;6254059;28;20271;-80
2023/03/02 12:10:32;;;;;;;15.47;13.87;;;4.90;61.70;;;;;;6256456;28;20851;-78
2023/03/02 12:13:37;;;;;;;15.23;12.60;;;4.70;62.50;;;;;;6245325;28;20239;-79
2023/03/02 12:16:41;;;;;;;14.67;13.17;;;5.10;61.60;;;;;;6241769;28;20284;-81
2023/03/02 12:19:45;;;;;;;16.27;13.93;;;5.30;61.00;;;;;;6251197;28;20284;-80
2023/03/02 12:22:49;;;;;;;16.53;14.83;;;5.30;61.30;;;;;;6247181;28;20251;-77
2023/03/02 12:26:05;;;;;;;17.50;14.23;;;5.50;61.30;;;;;;6229245;28;20235;-78
2023/03/02 12:29:24;;;;;;;18.47;14.00;;;5.70;60.80;;;;;;6246122;28;20234;-82
2023/03/02 12:32:29;;;;;;;15.17;13.03;;;5.80;60.90;;;;;;6245573;28;20247;-80
2023/03/02 12:35:34;;;;;;;16.57;13.93;;;5.90;60.80;;;;;;6236265;28;20278;-79
2023/03/02 12:38:38;;;;;;;15.83;13.80;;;6.10;60.20;;;;;;6255024;28;20246;-79
2023/03/02 12:42:00;;;;;;;18.73;14.20;;;6.00;60.00;;;;;;6232541;28;20245;-79
2023/03/02 12:45:19;;;;;;;16.37;13.87;;;6.00;59.90;;;;;;6215234;28;20247;-80
2023/03/02 12:48:28;;;;;;;13.77;12.40;;;6.10;60.50;;;;;;6243205;28;20370;-81
2023/03/02 12:51:43;;;;;;;14.80;13.13;;;6.20;60.10;;;;;;6253947;28;20233;-81
2023/03/02 12:54:46;;;;;;;15.47;13.50;;;6.30;59.60;;;;;;6244679;28;20299;-79
2023/03/02 12:57:50;;;;;;;15.30;13.43;;;6.50;59.10;;;;;;6255860;28;20720;-79
2023/03/02 13:00:58;;;;;;;14.90;12.97;;;6.20;59.40;;;;;;6252177;28;20242;-78
2023/03/02 13:04:01;;;;;;;14.00;12.57;;;6.20;59.60;;;;;;6249266;28;20720;-80
2023/03/02 13:07:05;;;;;;;13.70;12.40;;;6.30;59.40;;;;;;6241901;28;20230;-80
2023/03/02 13:10:21;;;;;;;14.80;13.33;;;6.10;59.60;;;;;;6241883;28;20727;-79
2023/03/02 13:13:27;;;;;;;17.63;13.27;;;6.00;59.80;;;;;;6236453;28;20314;-82
2023/03/02 13:16:35;;;;;;;14.70;13.20;;;5.90;60.10;;;;;;6250136;28;20639;-78
2023/03/02 13:19:39;;;;;;;15.13;13.40;;;5.90;60.40;;;;;;6253708;28;20241;-79
2023/03/02 13:22:43;;;;;;;16.67;13.73;;;6.10;59.90;;;;;;6247913;28;20234;-79
2023/03/02 13:25:51;;;;;;;17.10;12.40;;;6.00;60.00;;;;;;6239285;28;20230;-79
2023/03/02 13:29:03;;;;;;;14.10;12.60;;;6.00;60.20;;;;;;6249656;28;20238;-77
2023/03/02 13:32:22;;;;;;;15.10;13.60;;;6.10;59.70;;;;;;6240816;28;20265;-78
2023/03/02 13:35:27;;;;;;;15.50;13.30;;;6.00;59.90;;;;;;6253859;28;20234;-80
2023/03/02 13:38:35;;;;;;;21.43;14.17;;;5.90;60.50;;;;;;6233036;28;20236;-80
2023/03/02 13:41:40;;;;;;;18.27;14.03;;;5.90;60.60;;;;;;6255161;28;20231;-78
2023/03/02 13:44:45;;;;;;;23.57;14.10;;;5.70;61.10;;;;;;6254885;28;20800;-80
2023/03/02 13:47:49;;;;;;;14.30;12.80;;;5.80;61.30;;;;;;6247114;28;20253;-76
2023/03/02 13:50:56;;;;;;;15.67;14.07;;;5.80;61.00;;;;;;6251693;28;20238;-76
2023/03/02 13:54:02;;;;;;;14.80;13.03;;;5.90;60.50;;;;;;6240981;28;20933;-78
2023/03/02 13:57:06;;;;;;;13.80;12.47;;;6.00;60.40;;;;;;6242703;28;20352;-78
2023/03/02 14:00:14;;;;;;;14.30;12.80;;;5.90;60.40;;;;;;6240892;28;20312;-78
2023/03/02 14:03:29;;;;;;;15.90;11.87;;;5.90;60.40;;;;;;6238499;28;20785;-81
2023/03/02 14:06:32;;;;;;;14.57;12.40;;;5.90;60.80;;;;;;6252090;28;20261;-78
2023/03/02 14:09:36;;;;;;;12.50;11.20;;;5.90;60.70;;;;;;6232923;28;20380;-81
2023/03/02 14:12:41;;;;;;;13.90;12.57;;;5.80;60.70;;;;;;6226699;28;20247;-79
2023/03/02 14:15:49;;;;;;;13.40;12.13;;;5.70;61.30;;;;;;6240072;28;20234;-79
2023/03/02 14:18:55;;;;;;;12.60;11.43;;;5.70;61.40;;;;;;6236725;28;20349;-80
2023/03/02 14:21:58;;;;;;;12.73;11.53;;;5.80;61.10;;;;;;6247738;28;20351;-78
2023/03/02 14:25:01;;;;;;;15.87;12.43;;;5.70;61.30;;;;;;6250984;28;20312;-79
2023/03/02 14:28:04;;;;;;;12.50;11.27;;;5.80;61.30;;;;;;6249327;28;20238;-79
2023/03/02 14:31:09;;;;;;;12.97;11.63;;;5.70;61.40;;;;;;6238669;28;20235;-78
2023/03/02 14:34:15;;;;;;;13.87;12.47;;;5.70;61.60;;;;;;6245306;28;20273;-77
2023/03/02 14:37:25;;;;;;;14.10;12.80;;;5.70;61.20;;;;;;6246068;28;20237;-79
2023/03/02 14:40:28;;;;;;;14.03;12.63;;;5.70;61.20;;;;;;6240817;28;20278;-79
2023/03/02 14:43:31;;;;;;;13.37;12.07;;;5.70;61.70;;;;;;6239082;28;20241;-78
2023/03/02 14:46:34;;;;;;;14.23;12.87;;;5.30;62.10;;;;;;6251251;28;20234;-79
2023/03/02 14:49:39;;;;;;;13.77;12.50;;;5.30;62.30;;;;;;6235706;28;20250;-78
2023/03/02 14:52:46;;;;;;;17.23;13.13;;;5.20;62.40;;;;;;6248296;28;20229;-78
2023/03/02 14:55:49;;;;;;;14.77;13.27;;;5.10;62.30;;;;;;6243905;28;20314;-80
2023/03/02 14:58:53;;;;;;;15.57;13.97;;;4.80;62.80;;;;;;6251207;28;20740;-79
2023/03/02 15:01:56;;;;;;;17.13;14.20;;;4.50;63.50;;;;;;6248213;28;20249;-79
2023/03/02 15:05:04;;;;;;;19.23;15.67;;;4.40;63.80;;;;;;6266792;28;20245;-80
2023/03/02 15:08:11;;;;;;;21.17;16.70;;;4.20;64.50;;;;;;6238385;28;20306;-78
2023/03/02 15:11:15;;;;;;;28.97;20.30;;;4.00;64.80;;;;;;6209678;28;20249;-80
2023/03/02 15:14:18;;;;;;;33.90;23.07;;;4.00;65.00;;;;;;6218948;28;20239;-80
2023/03/02 15:17:21;;;;;;;43.77;27.20;;;3.90;65.20;;;;;;6239922;28;20246;-79
2023/03/02 15:20:25;;;;;;;40.97;25.73;;;3.60;66.10;;;;;;6244335;28;20619;-80
2023/03/02 15:23:28;;;;;;;51.00;31.67;;;3.60;66.50;;;;;;6244925;28;20234;-79
2023/03/02 15:26:31;;;;;;;57.13;33.63;;;3.50;66.90;;;;;;6245312;28;20234;-80
2023/03/02 15:29:34;;;;;;;57.50;32.13;;;3.40;67.00;;;;;;6242773;28;20316;-78
2023/03/02 15:32:38;;;;;;;47.27;30.20;;;3.30;67.50;;;;;;6239781;28;20245;-78
2023/03/02 15:35:43;;;;;;;57.80;33.30;;;3.30;67.60;;;;;;6233408;28;20239;-78
2023/03/02 15:38:49;;;;;;;56.20;30.80;;;3.30;67.40;;;;;;6248120;28;20241;-76
2023/03/02 15:41:52;;;;;;;48.83;30.47;;;3.30;67.60;;;;;;6204570;28;20319;-78
2023/03/02 15:44:55;;;;;;;47.53;29.70;;;3.10;67.90;;;;;;6232172;28;20377;-79
2023/03/02 15:47:58;;;;;;;58.97;33.10;;;3.10;68.00;;;;;;6245507;28;20242;-78
2023/03/02 15:51:05;;;;;;;58.17;30.73;;;3.10;67.90;;;;;;6243794;28;20250;-79